sensor_id;sensor_type;location;lat;lon;timestamp;temperature;humidity
9668;DHT22;4872;48.316;10.650;2023-04-01T05:08:13;7.20;99.90
9668;DHT22;4872;48.316;10.650;2023-04-01T05:10:40;7.30;99.70
9668;DHT22;4872;48.316;10.650;2023-04-01T05:13:07;7.30;99.60
9668;DHT22;4872;48.316;10.650;2023-04-01T05:15:35;7.30;99.40
9668;DHT22;4872;48.316;10.650;2023-04-01T05:18:02;7.30;99.40
9668;DHT22;4872;48.316;10.650;2023-04-01T05:20:29;7.30;99.30
9668;DHT22;4872;48.316;10.650;2023-04-01T05:22:56;7.40;99.30
9668;DHT22;4872;48.316;10.650;2023-04-01T05:25:25;7.40;99.20
9668;DHT22;4872;48.316;10.650;2023-04-01T05:27:52;7.30;99.20
9668;DHT22;4872;48.316;10.650;2023-04-01T05:30:18;7.30;99.10
9668;DHT22;4872;48.316;10.650;2023-04-01T05:32:45;7.30;99.20
9668;DHT22;4872;48.316;10.650;2023-04-01T05:35:12;7.30;99.10
9668;DHT22;4872;48.316;10.650;2023-04-01T05:37:39;7.30;99.00
9668;DHT22;4872;48.316;10.650;2023-04-01T05:40:07;7.30;99.00
9668;DHT22;4872;48.316;10.650;2023-04-01T05:42:35;7.30;99.10
9668;DHT22;4872;48.316;10.650;2023-04-01T05:45:02;7.30;98.90
9668;DHT22;4872;48.316;10.650;2023-04-01T05:47:29;7.40;98.90
9668;DHT22;4872;48.316;10.650;2023-04-01T05:49:55;7.50;98.90
9668;DHT22;4872;48.316;10.650;2023-04-01T05:52:23;7.50;98.70
9668;DHT22;4872;48.316;10.650;2023-04-01T05:54:50;7.50;98.70
9668;DHT22;4872;48.316;10.650;2023-04-01T05:57:17;7.60;98.80
9668;DHT22;4872;48.316;10.650;2023-04-01T05:59:45;7.60;98.60
9668;DHT22;4872;48.316;10.650;2023-04-01T06:02:11;7.60;98.80
9668;DHT22;4872;48.316;10.650;2023-04-01T06:04:39;7.70;98.90
9668;DHT22;4872;48.316;10.650;2023-04-01T06:07:11;7.70;98.70
9668;DHT22;4872;48.316;10.650;2023-04-01T06:09:39;7.80;98.50
9668;DHT22;4872;48.316;10.650;2023-04-01T06:12:29;7.80;98.20
9668;DHT22;4872;48.316;10.650;2023-04-01T06:15:19;7.90;98.20
9668;DHT22;4872;48.316;10.650;2023-04-01T06:20:43;7.70;98.00
9668;DHT22;4872;48.316;10.650;2023-04-01T06:23:21;7.90;98.20
9668;DHT22;4872;48.316;10.650;2023-04-01T06:25:58;8.00;97.90
9668;DHT22;4872;48.316;10.650;2023-04-01T06:28:59;8.40;97.70
9668;DHT22;4872;48.316;10.650;2023-04-01T06:31:46;8.10;97.40
9668;DHT22;4872;48.316;10.650;2023-04-01T06:34:45;8.10;97.30
9668;DHT22;4872;48.316;10.650;2023-04-01T06:37:27;8.10;97.30
9668;DHT22;4872;48.316;10.650;2023-04-01T06:40:29;8.10;97.30
9668;DHT22;4872;48.316;10.650;2023-04-01T06:43:04;8.10;97.20
9668;DHT22;4872;48.316;10.650;2023-04-01T06:45:40;8.10;97.50
9668;DHT22;4872;48.316;10.650;2023-04-01T06:48:29;8.10;97.30
9668;DHT22;4872;48.316;10.650;2023-04-01T06:51:04;8.20;97.30
9668;DHT22;4872;48.316;10.650;2023-04-01T06:53:39;8.30;96.90
9668;DHT22;4872;48.316;10.650;2023-04-01T06:56:12;8.40;96.80
9668;DHT22;4872;48.316;10.650;2023-04-01T06:58:44;8.70;96.80
9668;DHT22;4872;48.316;10.650;2023-04-01T07:01:16;9.20;96.20
9668;DHT22;4872;48.316;10.650;2023-04-01T07:03:51;9.10;95.80
9668;DHT22;4872;48.316;10.650;2023-04-01T07:06:26;9.50;95.40
9668;DHT22;4872;48.316;10.650;2023-04-01T07:08:58;9.10;95.00
9668;DHT22;4872;48.316;10.650;2023-04-01T07:11:30;9.40;95.20
9668;DHT22;4872;48.316;10.650;2023-04-01T07:14:01;9.40;95.20
9668;DHT22;4872;48.316;10.650;2023-04-01T07:16:32;9.10;95.10
9668;DHT22;4872;48.316;10.650;2023-04-01T07:19:05;9.10;95.10
9668;DHT22;4872;48.316;10.650;2023-04-01T07:21:36;9.20;95.30
9668;DHT22;4872;48.316;10.650;2023-04-01T07:24:11;8.80;95.30
9668;DHT22;4872;48.316;10.650;2023-04-01T07:26:41;8.70;95.50
9668;DHT22;4872;48.316;10.650;2023-04-01T07:29:11;8.50;95.60
9668;DHT22;4872;48.316;10.650;2023-04-01T07:34:48;8.70;95.10
9668;DHT22;4872;48.316;10.650;2023-04-01T07:37:22;8.70;95.20
9668;DHT22;4872;48.316;10.650;2023-04-01T07:39:57;8.80;95.30
9668;DHT22;4872;48.316;10.650;2023-04-01T07:42:37;9.00;95.50
9668;DHT22;4872;48.316;10.650;2023-04-01T07:45:14;8.60;95.20
9668;DHT22;4872;48.316;10.650;2023-04-01T07:47:55;8.70;95.20
9668;DHT22;4872;48.316;10.650;2023-04-01T07:50:30;8.80;95.10
9668;DHT22;4872;48.316;10.650;2023-04-01T07:53:05;8.90;94.90
9668;DHT22;4872;48.316;10.650;2023-04-01T07:55:39;8.80;94.60
9668;DHT22;4872;48.316;10.650;2023-04-01T07:58:12;8.70;94.90
9668;DHT22;4872;48.316;10.650;2023-04-01T08:00:47;9.10;95.10
9668;DHT22;4872;48.316;10.650;2023-04-01T08:03:31;8.90;95.00
9668;DHT22;4872;48.316;10.650;2023-04-01T08:06:05;9.00;94.80
9668;DHT22;4872;48.316;10.650;2023-04-01T08:08:42;9.70;94.60
9668;DHT22;4872;48.316;10.650;2023-04-01T08:11:16;9.50;94.60
9668;DHT22;4872;48.316;10.650;2023-04-01T08:13:56;9.70;94.00
9668;DHT22;4872;48.316;10.650;2023-04-01T08:16:30;9.70;93.90
9668;DHT22;4872;48.316;10.650;2023-04-01T08:19:05;9.80;93.80
9668;DHT22;4872;48.316;10.650;2023-04-01T08:21:42;10.00;93.20
9668;DHT22;4872;48.316;10.650;2023-04-01T08:24:17;10.00;92.50
9668;DHT22;4872;48.316;10.650;2023-04-01T08:26:49;10.00;92.50
9668;DHT22;4872;48.316;10.650;2023-04-01T08:29:21;10.00;92.70
9668;DHT22;4872;48.316;10.650;2023-04-01T08:31:54;10.10;92.80
9668;DHT22;4872;48.316;10.650;2023-04-01T08:34:25;10.20;92.80
9668;DHT22;4872;48.316;10.650;2023-04-01T08:36:59;10.00;92.60
9668;DHT22;4872;48.316;10.650;2023-04-01T08:39:31;10.00;92.60
9668;DHT22;4872;48.316;10.650;2023-04-01T08:42:17;10.30;92.50
9668;DHT22;4872;48.316;10.650;2023-04-01T08:45:16;10.00;92.70
9668;DHT22;4872;48.316;10.650;2023-04-01T08:48:13;9.80;93.10
9668;DHT22;4872;48.316;10.650;2023-04-01T08:54:12;9.60;92.80
9668;DHT22;4872;48.316;10.650;2023-04-01T08:56:47;9.70;93.30
9668;DHT22;4872;48.316;10.650;2023-04-01T08:59:28;9.80;93.20
9668;DHT22;4872;48.316;10.650;2023-04-01T09:02:28;9.80;93.10
9668;DHT22;4872;48.316;10.650;2023-04-01T09:05:26;9.90;92.80
9668;DHT22;4872;48.316;10.650;2023-04-01T09:08:03;9.90;92.70
9668;DHT22;4872;48.316;10.650;2023-04-01T09:10:55;9.90;92.80
9668;DHT22;4872;48.316;10.650;2023-04-01T09:13:37;10.00;92.30
9668;DHT22;4872;48.316;10.650;2023-04-01T09:16:23;10.40;92.00
9668;DHT22;4872;48.316;10.650;2023-04-01T09:19:10;10.00;92.00
9668;DHT22;4872;48.316;10.650;2023-04-01T09:22:09;10.00;91.80
9668;DHT22;4872;48.316;10.650;2023-04-01T09:25:02;10.20;92.10
9668;DHT22;4872;48.316;10.650;2023-04-01T09:27:39;10.20;91.60
9668;DHT22;4872;48.316;10.650;2023-04-01T09:30:32;10.30;91.70
9668;DHT22;4872;48.316;10.650;2023-04-01T09:33:43;10.10;91.60
9668;DHT22;4872;48.316;10.650;2023-04-01T09:36:25;10.10;92.00
9668;DHT22;4872;48.316;10.650;2023-04-01T09:38:58;10.20;92.20
9668;DHT22;4872;48.316;10.650;2023-04-01T09:41:31;10.20;92.00
9668;DHT22;4872;48.316;10.650;2023-04-01T09:44:02;10.50;92.10
9668;DHT22;4872;48.316;10.650;2023-04-01T09:46:41;10.40;92.30
9668;DHT22;4872;48.316;10.650;2023-04-01T09:52:18;10.30;92.30
9668;DHT22;4872;48.316;10.650;2023-04-01T09:55:21;10.30;92.20
9668;DHT22;4872;48.316;10.650;2023-04-01T10:04:26;10.00;92.90
9668;DHT22;4872;48.316;10.650;2023-04-01T10:10:47;9.60;95.00
9668;DHT22;4872;48.316;10.650;2023-04-01T10:13:46;9.50;94.40
9668;DHT22;4872;48.316;10.650;2023-04-01T10:16:26;9.40;95.50
9668;DHT22;4872;48.316;10.650;2023-04-01T10:19:17;9.50;95.30
9668;DHT22;4872;48.316;10.650;2023-04-01T10:22:17;9.30;94.90
9668;DHT22;4872;48.316;10.650;2023-04-01T10:25:10;9.20;95.20
9668;DHT22;4872;48.316;10.650;2023-04-01T10:28:27;9.40;95.80
9668;DHT22;4872;48.316;10.650;2023-04-01T10:31:18;9.20;96.60
9668;DHT22;4872;48.316;10.650;2023-04-01T10:34:44;9.00;96.40
9668;DHT22;4872;48.316;10.650;2023-04-01T10:37:37;8.80;96.90
9668;DHT22;4872;48.316;10.650;2023-04-01T10:40:38;8.60;96.70
9668;DHT22;4872;48.316;10.650;2023-04-01T10:46:53;8.40;98.40
9668;DHT22;4872;48.316;10.650;2023-04-01T10:56:15;8.10;98.90
9668;DHT22;4872;48.316;10.650;2023-04-01T11:08:20;8.00;99.40
9668;DHT22;4872;48.316;10.650;2023-04-01T11:11:20;8.40;99.70
9668;DHT22;4872;48.316;10.650;2023-04-01T11:17:14;8.20;99.50
9668;DHT22;4872;48.316;10.650;2023-04-01T11:23:11;8.20;99.90
9668;DHT22;4872;48.316;10.650;2023-04-01T11:26:02;8.30;99.30
9668;DHT22;4872;48.316;10.650;2023-04-01T11:31:47;8.50;98.70
9668;DHT22;4872;48.316;10.650;2023-04-01T11:37:24;8.70;98.40
9668;DHT22;4872;48.316;10.650;2023-04-01T11:40:02;8.80;98.20
9668;DHT22;4872;48.316;10.650;2023-04-01T11:42:42;8.90;98.30
9668;DHT22;4872;48.316;10.650;2023-04-01T11:45:28;8.90;98.50
9668;DHT22;4872;48.316;10.650;2023-04-01T11:48:11;8.90;98.00
9668;DHT22;4872;48.316;10.650;2023-04-01T11:50:52;8.80;97.90
9668;DHT22;4872;48.316;10.650;2023-04-01T11:53:38;8.90;98.20
9668;DHT22;4872;48.316;10.650;2023-04-01T11:56:18;8.90;98.20
9668;DHT22;4872;48.316;10.650;2023-04-01T12:02:11;9.00;97.70
9668;DHT22;4872;48.316;10.650;2023-04-01T12:04:58;8.90;98.00
9668;DHT22;4872;48.316;10.650;2023-04-01T12:07:40;8.90;98.10
9668;DHT22;4872;48.316;10.650;2023-04-01T12:10:17;8.90;98.30
9668;DHT22;4872;48.316;10.650;2023-04-01T12:12:49;8.70;99.10
9668;DHT22;4872;48.316;10.650;2023-04-01T12:15:31;8.60;98.30
9668;DHT22;4872;48.316;10.650;2023-04-01T12:18:09;8.50;99.00
9668;DHT22;4872;48.316;10.650;2023-04-01T12:20:48;8.30;99.70
9668;DHT22;4872;48.316;10.650;2023-04-01T12:26:35;8.60;99.90
9668;DHT22;4872;48.316;10.650;2023-04-01T12:29:13;8.60;99.90
9668;DHT22;4872;48.316;10.650;2023-04-01T12:31:51;8.80;99.90
9668;DHT22;4872;48.316;10.650;2023-04-01T12:34:49;8.40;99.90
9668;DHT22;4872;48.316;10.650;2023-04-01T12:37:32;8.50;99.90
9668;DHT22;4872;48.316;10.650;2023-04-01T12:40:23;8.50;99.90
9668;DHT22;4872;48.316;10.650;2023-04-01T12:43:17;8.50;99.90
9668;DHT22;4872;48.316;10.650;2023-04-01T12:45:57;8.50;99.90
9668;DHT22;4872;48.316;10.650;2023-04-01T12:48:48;8.70;99.90
9668;DHT22;4872;48.316;10.650;2023-04-01T12:57:57;8.40;99.90
9668;DHT22;4872;48.316;10.650;2023-04-01T13:00:43;8.60;99.90
9668;DHT22;4872;48.316;10.650;2023-04-01T13:03:20;8.90;99.90
9668;DHT22;4872;48.316;10.650;2023-04-01T13:08:52;8.90;99.90
9668;DHT22;4872;48.316;10.650;2023-04-01T13:11:31;9.00;99.90
9668;DHT22;4872;48.316;10.650;2023-04-01T13:14:38;9.00;99.90
9668;DHT22;4872;48.316;10.650;2023-04-01T13:17:14;9.00;99.90
9668;DHT22;4872;48.316;10.650;2023-04-01T13:19:49;9.10;99.90
9668;DHT22;4872;48.316;10.650;2023-04-01T13:22:20;9.40;99.90
9668;DHT22;4872;48.316;10.650;2023-04-01T13:24:57;9.10;99.90
9668;DHT22;4872;48.316;10.650;2023-04-01T13:27:30;9.30;99.90
9668;DHT22;4872;48.316;10.650;2023-04-01T13:30:08;9.40;99.90
9668;DHT22;4872;48.316;10.650;2023-04-01T13:32:44;9.60;99.90
9668;DHT22;4872;48.316;10.650;2023-04-01T13:35:30;10.30;99.90
9668;DHT22;4872;48.316;10.650;2023-04-01T13:38:12;9.90;99.60
9668;DHT22;4872;48.316;10.650;2023-04-01T13:40:51;9.70;99.30
9668;DHT22;4872;48.316;10.650;2023-04-01T13:43:22;9.60;99.70
9668;DHT22;4872;48.316;10.650;2023-04-01T13:49:12;9.50;99.60
9668;DHT22;4872;48.316;10.650;2023-04-01T13:52:00;9.40;99.90
9668;DHT22;4872;48.316;10.650;2023-04-01T13:55:00;9.50;99.90
9668;DHT22;4872;48.316;10.650;2023-04-01T13:57:48;9.40;99.90
9668;DHT22;4872;48.316;10.650;2023-04-01T14:00:30;9.40;99.90
9668;DHT22;4872;48.316;10.650;2023-04-01T14:03:19;9.20;99.90
9668;DHT22;4872;48.316;10.650;2023-04-01T14:06:00;9.20;99.90
9668;DHT22;4872;48.316;10.650;2023-04-01T14:08:36;9.00;99.90
9668;DHT22;4872;48.316;10.650;2023-04-01T14:11:13;9.10;99.90
9668;DHT22;4872;48.316;10.650;2023-04-01T14:13:50;9.00;99.90
9668;DHT22;4872;48.316;10.650;2023-04-01T14:16:51;8.90;99.90
9668;DHT22;4872;48.316;10.650;2023-04-01T14:19:40;8.80;99.90
9668;DHT22;4872;48.316;10.650;2023-04-01T14:22:16;8.70;99.90
9668;DHT22;4872;48.316;10.650;2023-04-01T14:25:01;8.60;99.90
9668;DHT22;4872;48.316;10.650;2023-04-01T14:27:46;8.60;99.90
9668;DHT22;4872;48.316;10.650;2023-04-01T14:30:28;8.70;99.90
9668;DHT22;4872;48.316;10.650;2023-04-01T14:33:10;8.90;99.90
9668;DHT22;4872;48.316;10.650;2023-04-01T14:35:46;9.00;99.90
9668;DHT22;4872;48.316;10.650;2023-04-01T14:38:42;9.10;99.90
9668;DHT22;4872;48.316;10.650;2023-04-01T14:41:20;9.30;99.90
9668;DHT22;4872;48.316;10.650;2023-04-01T14:44:23;9.50;99.90
9668;DHT22;4872;48.316;10.650;2023-04-01T14:49:47;10.00;99.90
9668;DHT22;4872;48.316;10.650;2023-04-01T14:52:21;10.00;99.80
9668;DHT22;4872;48.316;10.650;2023-04-01T14:54:50;10.10;99.40
9668;DHT22;4872;48.316;10.650;2023-04-01T14:57:24;10.00;99.30
9668;DHT22;4872;48.316;10.650;2023-04-01T14:59:53;10.00;99.50
9668;DHT22;4872;48.316;10.650;2023-04-01T15:02:45;10.10;98.70
9668;DHT22;4872;48.316;10.650;2023-04-01T15:05:20;9.90;99.00
9668;DHT22;4872;48.316;10.650;2023-04-01T15:08:15;9.90;98.90
9668;DHT22;4872;48.316;10.650;2023-04-01T15:10:53;9.80;99.20
9668;DHT22;4872;48.316;10.650;2023-04-01T15:13:46;9.90;98.80
9668;DHT22;4872;48.316;10.650;2023-04-01T15:16:21;9.80;98.70
9668;DHT22;4872;48.316;10.650;2023-04-01T15:18:57;9.70;98.30
9668;DHT22;4872;48.316;10.650;2023-04-01T15:21:44;9.80;98.80
9668;DHT22;4872;48.316;10.650;2023-04-01T15:24:20;9.80;98.40
9668;DHT22;4872;48.316;10.650;2023-04-01T15:27:08;9.80;98.70
9668;DHT22;4872;48.316;10.650;2023-04-01T15:29:51;9.70;98.50
9668;DHT22;4872;48.316;10.650;2023-04-01T15:32:32;9.80;98.30
9668;DHT22;4872;48.316;10.650;2023-04-01T15:35:19;9.80;97.90
9668;DHT22;4872;48.316;10.650;2023-04-01T15:37:54;9.90;97.30
9668;DHT22;4872;48.316;10.650;2023-04-01T15:40:24;9.90;97.40
9668;DHT22;4872;48.316;10.650;2023-04-01T15:43:03;9.90;96.80
9668;DHT22;4872;48.316;10.650;2023-04-01T15:45:37;9.90;96.80
9668;DHT22;4872;48.316;10.650;2023-04-01T15:48:18;10.00;96.50
9668;DHT22;4872;48.316;10.650;2023-04-01T15:51:29;10.10;96.10
9668;DHT22;4872;48.316;10.650;2023-04-01T15:54:13;10.10;96.10
9668;DHT22;4872;48.316;10.650;2023-04-01T15:56:56;10.20;95.80
9668;DHT22;4872;48.316;10.650;2023-04-01T15:59:51;10.20;95.60
9668;DHT22;4872;48.316;10.650;2023-04-01T16:02:24;10.10;95.60
9668;DHT22;4872;48.316;10.650;2023-04-01T16:04:59;10.10;95.60
9668;DHT22;4872;48.316;10.650;2023-04-01T16:07:43;10.00;95.70
9668;DHT22;4872;48.316;10.650;2023-04-01T16:10:35;9.90;96.20
9668;DHT22;4872;48.316;10.650;2023-04-01T16:13:19;9.80;96.40
9668;DHT22;4872;48.316;10.650;2023-04-01T16:15:57;9.70;96.60
9668;DHT22;4872;48.316;10.650;2023-04-01T16:18:40;9.90;96.70
9668;DHT22;4872;48.316;10.650;2023-04-01T16:21:13;9.80;96.90
9668;DHT22;4872;48.316;10.650;2023-04-01T16:23:48;9.80;96.60
9668;DHT22;4872;48.316;10.650;2023-04-01T16:26:20;9.80;96.40
9668;DHT22;4872;48.316;10.650;2023-04-01T16:28:55;9.80;96.50
9668;DHT22;4872;48.316;10.650;2023-04-01T16:31:31;9.60;96.40
9668;DHT22;4872;48.316;10.650;2023-04-01T16:34:02;9.60;96.60
9668;DHT22;4872;48.316;10.650;2023-04-01T16:36:35;9.60;96.50
9668;DHT22;4872;48.316;10.650;2023-04-01T16:39:19;9.60;96.80
9668;DHT22;4872;48.316;10.650;2023-04-01T16:42:07;9.60;96.40
9668;DHT22;4872;48.316;10.650;2023-04-01T16:44:48;9.80;96.60
9668;DHT22;4872;48.316;10.650;2023-04-01T16:47:19;9.50;96.30
9668;DHT22;4872;48.316;10.650;2023-04-01T16:49:51;9.50;96.50
9668;DHT22;4872;48.316;10.650;2023-04-01T16:52:34;9.40;96.40
9668;DHT22;4872;48.316;10.650;2023-04-01T16:55:15;9.40;96.40
9668;DHT22;4872;48.316;10.650;2023-04-01T16:57:46;9.40;96.40
9668;DHT22;4872;48.316;10.650;2023-04-01T17:00:19;9.50;96.30
9668;DHT22;4872;48.316;10.650;2023-04-01T17:02:56;9.50;96.40
9668;DHT22;4872;48.316;10.650;2023-04-01T17:05:39;9.50;96.40
9668;DHT22;4872;48.316;10.650;2023-04-01T17:08:14;9.50;96.40
9668;DHT22;4872;48.316;10.650;2023-04-01T17:10:50;9.50;96.70
9668;DHT22;4872;48.316;10.650;2023-04-01T17:13:34;9.40;96.50
9668;DHT22;4872;48.316;10.650;2023-04-01T17:16:15;9.30;96.60
9668;DHT22;4872;48.316;10.650;2023-04-01T17:18:55;9.30;96.90
9668;DHT22;4872;48.316;10.650;2023-04-01T17:21:33;9.40;97.00
9668;DHT22;4872;48.316;10.650;2023-04-01T17:24:07;9.40;96.90
9668;DHT22;4872;48.316;10.650;2023-04-01T17:26:39;9.40;97.00
9668;DHT22;4872;48.316;10.650;2023-04-01T17:29:15;9.30;96.90
9668;DHT22;4872;48.316;10.650;2023-04-01T17:31:48;9.40;97.00
9668;DHT22;4872;48.316;10.650;2023-04-01T17:34:33;9.40;96.80
9668;DHT22;4872;48.316;10.650;2023-04-01T17:37:28;9.40;96.60
9668;DHT22;4872;48.316;10.650;2023-04-01T17:40:06;9.30;96.90
9668;DHT22;4872;48.316;10.650;2023-04-01T17:42:45;9.30;96.90
9668;DHT22;4872;48.316;10.650;2023-04-01T17:45:20;9.30;96.80
9668;DHT22;4872;48.316;10.650;2023-04-01T17:47:55;9.30;96.70
9668;DHT22;4872;48.316;10.650;2023-04-01T17:50:24;9.30;96.60
9668;DHT22;4872;48.316;10.650;2023-04-01T17:53:05;9.30;96.60
9668;DHT22;4872;48.316;10.650;2023-04-01T17:55:45;9.30;96.60
9668;DHT22;4872;48.316;10.650;2023-04-01T17:58:19;9.20;96.50
9668;DHT22;4872;48.316;10.650;2023-04-01T18:00:54;9.20;96.60
9668;DHT22;4872;48.316;10.650;2023-04-01T18:03:43;9.40;96.60
9668;DHT22;4872;48.316;10.650;2023-04-01T18:06:17;9.10;96.50
9668;DHT22;4872;48.316;10.650;2023-04-01T18:08:56;9.20;96.60
9668;DHT22;4872;48.316;10.650;2023-04-01T18:11:34;9.10;96.50
9668;DHT22;4872;48.316;10.650;2023-04-01T18:14:42;9.10;96.50
9668;DHT22;4872;48.316;10.650;2023-04-01T18:17:23;9.00;96.40
9668;DHT22;4872;48.316;10.650;2023-04-01T18:20:06;9.20;96.40
9668;DHT22;4872;48.316;10.650;2023-04-01T18:22:39;9.00;96.30
9668;DHT22;4872;48.316;10.650;2023-04-01T18:25:17;9.00;96.20
9668;DHT22;4872;48.316;10.650;2023-04-01T18:27:47;9.00;96.30
9668;DHT22;4872;48.316;10.650;2023-04-01T18:30:20;9.00;96.00
9668;DHT22;4872;48.316;10.650;2023-04-01T18:32:51;9.00;95.80
9668;DHT22;4872;48.316;10.650;2023-04-01T18:35:44;9.00;95.80
9668;DHT22;4872;48.316;10.650;2023-04-01T18:38:13;9.00;95.70
9668;DHT22;4872;48.316;10.650;2023-04-01T18:40:43;9.00;95.70
9668;DHT22;4872;48.316;10.650;2023-04-01T18:43:19;8.90;95.60
9668;DHT22;4872;48.316;10.650;2023-04-01T18:45:53;8.90;95.60
9668;DHT22;4872;48.316;10.650;2023-04-01T18:48:40;8.80;95.70
9668;DHT22;4872;48.316;10.650;2023-04-01T18:51:13;8.80;95.80
9668;DHT22;4872;48.316;10.650;2023-04-01T18:53:44;8.80;95.80
9668;DHT22;4872;48.316;10.650;2023-04-01T18:56:15;8.90;96.00
9668;DHT22;4872;48.316;10.650;2023-04-01T18:58:53;8.80;96.00
9668;DHT22;4872;48.316;10.650;2023-04-01T19:01:26;8.90;96.10
9668;DHT22;4872;48.316;10.650;2023-04-01T19:04:14;8.80;96.00
9668;DHT22;4872;48.316;10.650;2023-04-01T19:06:45;8.80;96.20
9668;DHT22;4872;48.316;10.650;2023-04-01T19:09:21;8.80;96.20
9668;DHT22;4872;48.316;10.650;2023-04-01T19:12:18;8.80;96.20
9668;DHT22;4872;48.316;10.650;2023-04-01T19:14:56;8.80;96.30
9668;DHT22;4872;48.316;10.650;2023-04-01T19:17:45;8.70;96.30
9668;DHT22;4872;48.316;10.650;2023-04-01T19:20:19;8.70;96.40
9668;DHT22;4872;48.316;10.650;2023-04-01T19:23:04;8.80;96.40
9668;DHT22;4872;48.316;10.650;2023-04-01T19:25:36;8.70;96.40
9668;DHT22;4872;48.316;10.650;2023-04-01T19:28:17;8.70;96.40
9668;DHT22;4872;48.316;10.650;2023-04-01T19:30:53;8.90;96.50
9668;DHT22;4872;48.316;10.650;2023-04-01T19:33:36;8.70;96.50
9668;DHT22;4872;48.316;10.650;2023-04-01T19:36:13;8.60;96.60
9668;DHT22;4872;48.316;10.650;2023-04-01T19:38:53;8.50;96.50
9668;DHT22;4872;48.316;10.650;2023-04-01T19:41:32;8.60;96.60
9668;DHT22;4872;48.316;10.650;2023-04-01T19:44:12;8.50;96.50
9668;DHT22;4872;48.316;10.650;2023-04-01T19:46:44;8.50;96.40
9668;DHT22;4872;48.316;10.650;2023-04-01T19:49:33;8.60;96.40
9668;DHT22;4872;48.316;10.650;2023-04-01T19:52:07;8.60;96.50
9668;DHT22;4872;48.316;10.650;2023-04-01T19:54:41;8.50;96.50
9668;DHT22;4872;48.316;10.650;2023-04-01T19:57:18;8.50;96.50
9668;DHT22;4872;48.316;10.650;2023-04-01T19:59:50;8.50;96.50
9668;DHT22;4872;48.316;10.650;2023-04-01T20:02:33;8.70;96.60
9668;DHT22;4872;48.316;10.650;2023-04-01T20:05:21;8.50;96.50
9668;DHT22;4872;48.316;10.650;2023-04-01T20:07:53;8.50;96.50
9668;DHT22;4872;48.316;10.650;2023-04-01T20:10:31;8.60;96.60
9668;DHT22;4872;48.316;10.650;2023-04-01T20:13:05;8.40;96.40
9668;DHT22;4872;48.316;10.650;2023-04-01T20:15:37;8.40;96.50
9668;DHT22;4872;48.316;10.650;2023-04-01T20:18:14;8.50;96.60
9668;DHT22;4872;48.316;10.650;2023-04-01T20:20:53;8.40;96.60
9668;DHT22;4872;48.316;10.650;2023-04-01T20:23:39;8.40;96.60
9668;DHT22;4872;48.316;10.650;2023-04-01T20:26:08;8.40;96.60
9668;DHT22;4872;48.316;10.650;2023-04-01T20:28:43;8.40;96.60
9668;DHT22;4872;48.316;10.650;2023-04-01T20:31:29;8.40;96.70
9668;DHT22;4872;48.316;10.650;2023-04-01T20:34:10;8.30;96.70
9668;DHT22;4872;48.316;10.650;2023-04-01T20:36:46;8.30;96.90
9668;DHT22;4872;48.316;10.650;2023-04-01T20:39:39;8.30;97.00
9668;DHT22;4872;48.316;10.650;2023-04-01T20:42:27;8.30;97.00
9668;DHT22;4872;48.316;10.650;2023-04-01T20:45:10;8.30;97.00
9668;DHT22;4872;48.316;10.650;2023-04-01T20:47:52;8.30;97.10
9668;DHT22;4872;48.316;10.650;2023-04-01T20:50:25;8.20;97.00
9668;DHT22;4872;48.316;10.650;2023-04-01T20:53:04;8.10;97.10
9668;DHT22;4872;48.316;10.650;2023-04-01T20:55:56;8.10;97.20
9668;DHT22;4872;48.316;10.650;2023-04-01T20:58:30;8.20;97.30
9668;DHT22;4872;48.316;10.650;2023-04-01T21:01:13;8.20;97.20
9668;DHT22;4872;48.316;10.650;2023-04-01T21:03:48;8.20;97.30
9668;DHT22;4872;48.316;10.650;2023-04-01T21:06:35;8.50;97.40
9668;DHT22;4872;48.316;10.650;2023-04-01T21:09:15;8.10;97.30
9668;DHT22;4872;48.316;10.650;2023-04-01T21:11:51;8.10;97.40
9668;DHT22;4872;48.316;10.650;2023-04-01T21:14:37;8.20;97.50
9668;DHT22;4872;48.316;10.650;2023-04-01T21:17:13;8.20;97.50
9668;DHT22;4872;48.316;10.650;2023-04-01T21:19:59;8.50;97.70
9668;DHT22;4872;48.316;10.650;2023-04-01T21:22:40;8.20;97.50
9668;DHT22;4872;48.316;10.650;2023-04-01T21:25:27;8.10;97.50
9668;DHT22;4872;48.316;10.650;2023-04-01T21:31:05;8.10;97.50
9668;DHT22;4872;48.316;10.650;2023-04-01T21:34:27;8.00;97.60
9668;DHT22;4872;48.316;10.650;2023-04-01T21:37:07;8.00;97.70
9668;DHT22;4872;48.316;10.650;2023-04-01T21:39:59;7.90;97.80
9668;DHT22;4872;48.316;10.650;2023-04-01T21:42:39;7.90;97.90
9668;DHT22;4872;48.316;10.650;2023-04-01T21:45:20;7.80;97.90
9668;DHT22;4872;48.316;10.650;2023-04-01T21:48:22;7.90;98.00
9668;DHT22;4872;48.316;10.650;2023-04-01T21:54:35;7.70;98.10
9668;DHT22;4872;48.316;10.650;2023-04-01T21:57:38;7.70;98.20
9668;DHT22;4872;48.316;10.650;2023-04-01T22:00:18;7.70;98.30
9668;DHT22;4872;48.316;10.650;2023-04-01T22:03:19;7.70;98.40
9668;DHT22;4872;48.316;10.650;2023-04-01T22:05:55;7.60;98.50
9668;DHT22;4872;48.316;10.650;2023-04-01T22:11:38;7.60;98.70
9668;DHT22;4872;48.316;10.650;2023-04-01T22:14:16;7.70;98.80
9668;DHT22;4872;48.316;10.650;2023-04-01T22:16:48;7.60;98.80
9668;DHT22;4872;48.316;10.650;2023-04-01T22:19:20;7.60;98.90
9668;DHT22;4872;48.316;10.650;2023-04-01T22:21:56;7.60;98.90
9668;DHT22;4872;48.316;10.650;2023-04-01T22:24:37;7.50;98.90
9668;DHT22;4872;48.316;10.650;2023-04-01T22:27:10;7.60;99.00
9668;DHT22;4872;48.316;10.650;2023-04-01T22:29:45;7.70;99.00
